< < Back
Terminal Aerodrome Forecast


Current Version              Previous Versions:   1  2  3  4  5  6  7  8  9  

Terminal Aerodrome Forecast

007
FTUS44 KMRX 291122
TAFTYS
TAF
KTYS 291122Z 2912/3012 VRB04KT P6SM BKN250
     FM300400 VRB04KT P6SM BKN140 BKN250=

Latest METAR

685
SAUS80 KWBC 291200 RRB
MTRTYS
METAR KTYS 291153Z 00000KT 10SM BKN250 17/13 A3005 RMK AO2 SLP166
T01720128 10183 20139 53015


USA.gov is the U.S. government's official web portal to all federal, state and local government web resources and services.